Thunderstorms From: 23-05-2018 15:04 Until: 24-05-2018 15:00 warning for: Thunderstorms Level: Yellow info button

Although rather usual in this region, locally or potentially dangerous phenomena are expected. (such as local winds, summer thunderstorms, rising streams or high waves) Be aware and pay attention to the latest weather updates, especially if you carry out activities exposed to weather or close to a stream or shoreline. 


Meteo18 Weather Cam more information Meteo18 Weather Cam


warning for Thunderstorms more information blitzortung!


Rain radar more information rain snow radar


Visit our other weather sites:

Template documentation
and downloads

And another site



Weather Underground History page Text

Daily Summary for January 24, 2018 Units:  Both    English   Metric
« Previous Day
Next Day »
Daily Weekly Monthly Yearly Custom
  High: Low: Average:
Temperature: TemperatureC °F /  -17.8 °C 8.0 °F /  -13.3 °C 10 °F /  -12.2 °C
Dew Point: DewpointC °F /  -17.8 °C 7.2 °F /  -13.8 °C 8.2 °F /  -13.2 °C
Humidity: Humidity % 78 % 88 %
Wind Speed: WindSpeedKMH mph /  0 km/h - 9 mph /  14.5 km/h
Wind Gust: WindSpeedGustKMH mph /  0 km/h - -
Wind:- - SSW
Pressure: PressurehPa in /  0 hPa 1018.5 in /  34486.4 hPa -
Precipitation: 0.0 in /  0 mm    
Historical Graphs
 
 
Tabular Data for January 24, 2018
Time Temperature Dew Point Pressure Wind Wind Speed Wind Gust Humidity Rainfall Rate (Hourly)
TemperatureC °F /  -17.8 °C DewpointC °F /  -17.8 °C PressurehPa in /  0 hPa Calm     Humidity % HourlyPrecipMM in /  0 mm
00:13 9.7 °F /  -12.4 °C 8.9 °F /  -12.8 °C 1027.0 in /  34774.2 hPa SW 9.7 mph /  15.6 km/h 17.7 mph /  28.5 km/h 95 % 0.0 in /  0 mm
00:25 9.7 °F /  -12.4 °C 8.9 °F /  -12.8 °C 1027.0 in /  34774.2 hPa SSW 11.1 mph /  17.9 km/h 16.1 mph /  25.9 km/h 95 % 0.0 in /  0 mm
00:31 9.7 °F /  -12.4 °C 8.9 °F /  -12.8 °C 1027.0 in /  34774.2 hPa SW 13.0 mph /  20.9 km/h 17.7 mph /  28.5 km/h 95 % 0.0 in /  0 mm
00:37 9.7 °F /  -12.4 °C 8.9 °F /  -12.8 °C 1027.0 in /  34774.2 hPa SW 11.1 mph /  17.9 km/h 17.7 mph /  28.5 km/h 95 % 0.0 in /  0 mm
00:43 9.7 °F /  -12.4 °C 8.9 °F /  -12.8 °C 1027.0 in /  34774.2 hPa SSW 7.9 mph /  12.7 km/h 11.3 mph /  18.2 km/h 95 % 0.0 in /  0 mm
00:49 9.7 °F /  -12.4 °C 8.9 °F /  -12.8 °C 1027.0 in /  34774.2 hPa SW 6.4 mph /  10.3 km/h 11.3 mph /  18.2 km/h 95 % 0.0 in /  0 mm
01:01 9.6 °F /  -12.4 °C 8.8 °F /  -12.9 °C 1027.0 in /  34774.2 hPa SSW 6.4 mph /  10.3 km/h 12.9 mph /  20.8 km/h 95 % 0.0 in /  0 mm
01:07 9.6 °F /  -12.4 °C 8.8 °F /  -12.9 °C 1026.6 in /  34760.7 hPa South 7.9 mph /  12.7 km/h 11.3 mph /  18.2 km/h 95 % 0.0 in /  0 mm
01:13 9.6 °F /  -12.4 °C 8.8 °F /  -12.9 °C 1026.6 in /  34760.7 hPa SSW 7.9 mph /  12.7 km/h 11.3 mph /  18.2 km/h 95 % 0.0 in /  0 mm
01:19 9.5 °F /  -12.5 °C 8.7 °F /  -12.9 °C 1026.6 in /  34760.7 hPa South 9.7 mph /  15.6 km/h 11.3 mph /  18.2 km/h 95 % 0.0 in /  0 mm
01:25 9.5 °F /  -12.5 °C 8.7 °F /  -12.9 °C 1026.6 in /  34760.7 hPa SSW 4.7 mph /  7.6 km/h 11.3 mph /  18.2 km/h 95 % 0.0 in /  0 mm
01:31 9.5 °F /  -12.5 °C 8.7 °F /  -12.9 °C 1026.6 in /  34760.7 hPa SSW 6.4 mph /  10.3 km/h 11.3 mph /  18.2 km/h 95 % 0.0 in /  0 mm
01:37 9.4 °F /  -12.6 °C 8.6 °F /  -13 °C 1026.6 in /  34760.7 hPa SSW 7.9 mph /  12.7 km/h 11.3 mph /  18.2 km/h 95 % 0.0 in /  0 mm
01:43 9.4 °F /  -12.6 °C 8.6 °F /  -13 °C 1026.6 in /  34760.7 hPa SSW 6.4 mph /  10.3 km/h 11.3 mph /  18.2 km/h 95 % 0.0 in /  0 mm
01:49 9.4 °F /  -12.6 °C 8.6 °F /  -13 °C 1026.3 in /  34750.5 hPa SSW 4.7 mph /  7.6 km/h 11.3 mph /  18.2 km/h 95 % 0.0 in /  0 mm
01:55 9.4 °F /  -12.6 °C 8.6 °F /  -13 °C 1026.3 in /  34750.5 hPa South 1.4 mph /  2.3 km/h 9.7 mph /  15.6 km/h 95 % 0.0 in /  0 mm
02:01 9.3 °F /  -12.6 °C 8.5 °F /  -13.1 °C 1026.3 in /  34750.5 hPa SSW 7.9 mph /  12.7 km/h 8.0 mph /  12.9 km/h 95 % 0.0 in /  0 mm
02:07 9.3 °F /  -12.6 °C 8.5 °F /  -13.1 °C 1026.3 in /  34750.5 hPa SSW 3.2 mph /  5.1 km/h 6.4 mph /  10.3 km/h 95 % 0.0 in /  0 mm
02:19 9.3 °F /  -12.6 °C 8.5 °F /  -13.1 °C 1026.6 in /  34760.7 hPa SSW 4.7 mph /  7.6 km/h 8.0 mph /  12.9 km/h 95 % 0.0 in /  0 mm
02:25 9.3 °F /  -12.6 °C 8.5 °F /  -13.1 °C 1026.3 in /  34750.5 hPa SSW 4.7 mph /  7.6 km/h 6.4 mph /  10.3 km/h 95 % 0.0 in /  0 mm
02:31 9.3 °F /  -12.6 °C 8.5 °F /  -13.1 °C 1026.6 in /  34760.7 hPa SSW 1.4 mph /  2.3 km/h 4.8 mph /  7.7 km/h 95 % 0.0 in /  0 mm
02:37 9.3 °F /  -12.6 °C 8.5 °F /  -13.1 °C 1026.3 in /  34750.5 hPa South 3.2 mph /  5.1 km/h 4.8 mph /  7.7 km/h 95 % 0.0 in /  0 mm
02:44 9.2 °F /  -12.7 °C 8.4 °F /  -13.1 °C 1026.3 in /  34750.5 hPa South 4.7 mph /  7.6 km/h 6.4 mph /  10.3 km/h 95 % 0.0 in /  0 mm
02:50 9.2 °F /  -12.7 °C 8.4 °F /  -13.1 °C 1026.3 in /  34750.5 hPa SSW 4.7 mph /  7.6 km/h 6.4 mph /  10.3 km/h 95 % 0.0 in /  0 mm
02:56 9.2 °F /  -12.7 °C 8.4 °F /  -13.1 °C 1026.3 in /  34750.5 hPa SSW 4.7 mph /  7.6 km/h 9.7 mph /  15.6 km/h 95 % 0.0 in /  0 mm
03:08 9.3 °F /  -12.6 °C 8.5 °F /  -13.1 °C 1026.3 in /  34750.5 hPa SSW 4.7 mph /  7.6 km/h 8.0 mph /  12.9 km/h 95 % 0.0 in /  0 mm
03:14 9.3 °F /  -12.6 °C 8.5 °F /  -13.1 °C 1026.3 in /  34750.5 hPa SSW 7.9 mph /  12.7 km/h 8.0 mph /  12.9 km/h 95 % 0.0 in /  0 mm
03:20 9.3 °F /  -12.6 °C 8.5 °F /  -13.1 °C 1026.3 in /  34750.5 hPa South 6.4 mph /  10.3 km/h 8.0 mph /  12.9 km/h 95 % 0.0 in /  0 mm
03:26 9.3 °F /  -12.6 °C 8.5 °F /  -13.1 °C 1026.3 in /  34750.5 hPa SE 3.2 mph /  5.1 km/h 6.4 mph /  10.3 km/h 95 % 0.0 in /  0 mm
03:38 9.3 °F /  -12.6 °C 8.5 °F /  -13.1 °C 1026.0 in /  34740.4 hPa SSW 3.2 mph /  5.1 km/h 8.0 mph /  12.9 km/h 95 % 0.0 in /  0 mm
03:44 9.3 °F /  -12.6 °C 8.5 °F /  -13.1 °C 1026.0 in /  34740.4 hPa South 4.7 mph /  7.6 km/h 9.7 mph /  15.6 km/h 95 % 0.0 in /  0 mm
03:50 9.2 °F /  -12.7 °C 8.4 °F /  -13.1 °C 1026.0 in /  34740.4 hPa South 4.7 mph /  7.6 km/h 8.0 mph /  12.9 km/h 95 % 0.0 in /  0 mm
03:56 9.2 °F /  -12.7 °C 8.4 °F /  -13.1 °C 1026.0 in /  34740.4 hPa SSW 3.2 mph /  5.1 km/h 8.0 mph /  12.9 km/h 95 % 0.0 in /  0 mm
04:08 9.2 °F /  -12.7 °C 8.3 °F /  -13.2 °C 1026.0 in /  34740.4 hPa SSW 7.9 mph /  12.7 km/h 12.9 mph /  20.8 km/h 94 % 0.0 in /  0 mm
04:14 9.2 °F /  -12.7 °C 8.3 °F /  -13.2 °C 1025.6 in /  34726.8 hPa SSW 11.1 mph /  17.9 km/h 14.5 mph /  23.3 km/h 94 % 0.0 in /  0 mm
04:20 9.2 °F /  -12.7 °C 8.3 °F /  -13.2 °C 1026.0 in /  34740.4 hPa SSW 7.9 mph /  12.7 km/h 9.7 mph /  15.6 km/h 94 % 0.0 in /  0 mm
04:26 9.2 °F /  -12.7 °C 8.3 °F /  -13.2 °C 1025.6 in /  34726.8 hPa South 7.9 mph /  12.7 km/h 9.7 mph /  15.6 km/h 94 % 0.0 in /  0 mm
04:32 9.1 °F /  -12.7 °C 8.2 °F /  -13.2 °C 1025.6 in /  34726.8 hPa SSW 4.7 mph /  7.6 km/h 11.3 mph /  18.2 km/h 94 % 0.0 in /  0 mm
04:44 9.1 °F /  -12.7 °C 8.2 °F /  -13.2 °C 1025.6 in /  34726.8 hPa SSW 9.7 mph /  15.6 km/h 9.7 mph /  15.6 km/h 94 % 0.0 in /  0 mm
04:50 9.1 °F /  -12.7 °C 8.2 °F /  -13.2 °C 1025.6 in /  34726.8 hPa SSW 6.4 mph /  10.3 km/h 8.0 mph /  12.9 km/h 94 % 0.0 in /  0 mm
04:56 9.0 °F /  -12.8 °C 8.1 °F /  -13.3 °C 1025.6 in /  34726.8 hPa SSW 7.9 mph /  12.7 km/h 11.3 mph /  18.2 km/h 94 % 0.0 in /  0 mm
05:02 9.0 °F /  -12.8 °C 8.1 °F /  -13.3 °C 1025.6 in /  34726.8 hPa SSW 11.1 mph /  17.9 km/h 12.9 mph /  20.8 km/h 94 % 0.0 in /  0 mm
05:08 9.0 °F /  -12.8 °C 8.1 °F /  -13.3 °C 1025.6 in /  34726.8 hPa SSW 9.7 mph /  15.6 km/h 14.5 mph /  23.3 km/h 94 % 0.0 in /  0 mm
05:14 9.0 °F /  -12.8 °C 8.1 °F /  -13.3 °C 1025.6 in /  34726.8 hPa SSW 7.9 mph /  12.7 km/h 11.3 mph /  18.2 km/h 94 % 0.0 in /  0 mm
05:20 9.0 °F /  -12.8 °C 8.1 °F /  -13.3 °C 1025.6 in /  34726.8 hPa SW 11.1 mph /  17.9 km/h 11.3 mph /  18.2 km/h 94 % 0.0 in /  0 mm
05:26 8.9 °F /  -12.8 °C 8.0 °F /  -13.3 °C 1025.6 in /  34726.8 hPa SSW 7.9 mph /  12.7 km/h 9.7 mph /  15.6 km/h 94 % 0.0 in /  0 mm
05:32 8.8 °F /  -12.9 °C 7.9 °F /  -13.4 °C 1025.6 in /  34726.8 hPa SW 7.9 mph /  12.7 km/h 9.7 mph /  15.6 km/h 94 % 0.0 in /  0 mm
05:38 8.7 °F /  -12.9 °C 7.8 °F /  -13.4 °C 1025.3 in /  34716.7 hPa SW 4.7 mph /  7.6 km/h 9.7 mph /  15.6 km/h 94 % 0.0 in /  0 mm
05:50 8.4 °F /  -13.1 °C 7.5 °F /  -13.6 °C 1025.3 in /  34716.7 hPa SSW 6.4 mph /  10.3 km/h 8.0 mph /  12.9 km/h 94 % 0.0 in /  0 mm
05:56 8.3 °F /  -13.2 °C 7.5 °F /  -13.6 °C 1025.3 in /  34716.7 hPa SSW 6.4 mph /  10.3 km/h 9.7 mph /  15.6 km/h 95 % 0.0 in /  0 mm
06:02 8.2 °F /  -13.2 °C 7.4 °F /  -13.7 °C 1025.3 in /  34716.7 hPa SSW 3.2 mph /  5.1 km/h 6.4 mph /  10.3 km/h 95 % 0.0 in /  0 mm
06:08 8.0 °F /  -13.3 °C 7.2 °F /  -13.8 °C 1024.9 in /  34703.1 hPa SSW 3.2 mph /  5.1 km/h 6.4 mph /  10.3 km/h 95 % 0.0 in /  0 mm
06:20 8.0 °F /  -13.3 °C 7.4 °F /  -13.7 °C 1024.9 in /  34703.1 hPa SSW 4.7 mph /  7.6 km/h 8.0 mph /  12.9 km/h 96 % 0.0 in /  0 mm
06:32 8.2 °F /  -13.2 °C 7.6 °F /  -13.6 °C 1024.9 in /  34703.1 hPa SSW 6.4 mph /  10.3 km/h 8.0 mph /  12.9 km/h 96 % 0.0 in /  0 mm
06:38 8.3 °F /  -13.2 °C 7.5 °F /  -13.6 °C 1024.9 in /  34703.1 hPa South 7.9 mph /  12.7 km/h 9.7 mph /  15.6 km/h 95 % 0.0 in /  0 mm
06:44 8.4 °F /  -13.1 °C 7.6 °F /  -13.6 °C 1024.9 in /  34703.1 hPa SSW 7.9 mph /  12.7 km/h 11.3 mph /  18.2 km/h 95 % 0.0 in /  0 mm
06:50 8.4 °F /  -13.1 °C 7.6 °F /  -13.6 °C 1024.9 in /  34703.1 hPa SW 6.4 mph /  10.3 km/h 8.0 mph /  12.9 km/h 95 % 0.0 in /  0 mm
06:56 8.4 °F /  -13.1 °C 7.6 °F /  -13.6 °C 1024.9 in /  34703.1 hPa SW 6.4 mph /  10.3 km/h 8.0 mph /  12.9 km/h 95 % 0.0 in /  0 mm
07:02 8.4 °F /  -13.1 °C 7.6 °F /  -13.6 °C 1024.9 in /  34703.1 hPa SSW 4.7 mph /  7.6 km/h 9.7 mph /  15.6 km/h 95 % 0.0 in /  0 mm
07:08 8.4 °F /  -13.1 °C 7.6 °F /  -13.6 °C 1024.9 in /  34703.1 hPa SSW 7.9 mph /  12.7 km/h 8.0 mph /  12.9 km/h 95 % 0.0 in /  0 mm
07:14 8.6 °F /  -13 °C 7.8 °F /  -13.4 °C 1024.9 in /  34703.1 hPa SSW 4.7 mph /  7.6 km/h 6.4 mph /  10.3 km/h 95 % 0.0 in /  0 mm
07:20 8.6 °F /  -13 °C 7.8 °F /  -13.4 °C 1024.9 in /  34703.1 hPa SSW 4.7 mph /  7.6 km/h 8.0 mph /  12.9 km/h 95 % 0.0 in /  0 mm
07:26 8.6 °F /  -13 °C 7.8 °F /  -13.4 °C 1024.9 in /  34703.1 hPa SSW 7.9 mph /  12.7 km/h 9.7 mph /  15.6 km/h 95 % 0.0 in /  0 mm
07:38 8.6 °F /  -13 °C 7.7 °F /  -13.5 °C 1024.6 in /  34693 hPa SSW 6.4 mph /  10.3 km/h 11.3 mph /  18.2 km/h 94 % 0.0 in /  0 mm
08:14 8.6 °F /  -13 °C 7.8 °F /  -13.4 °C 1024.3 in /  34682.8 hPa SW 4.7 mph /  7.6 km/h 4.8 mph /  7.7 km/h 95 % 0.0 in /  0 mm
08:38 8.6 °F /  -13 °C 7.7 °F /  -13.5 °C 1024.3 in /  34682.8 hPa SW 6.4 mph /  10.3 km/h 9.7 mph /  15.6 km/h 94 % 0.0 in /  0 mm
08:44 8.7 °F /  -12.9 °C 7.8 °F /  -13.4 °C 1024.3 in /  34682.8 hPa SW 6.4 mph /  10.3 km/h 6.4 mph /  10.3 km/h 94 % 0.0 in /  0 mm
08:50 8.6 °F /  -13 °C 7.7 °F /  -13.5 °C 1024.3 in /  34682.8 hPa South 4.7 mph /  7.6 km/h 9.7 mph /  15.6 km/h 94 % 0.0 in /  0 mm
08:56 8.7 °F /  -12.9 °C 7.8 °F /  -13.4 °C 1024.3 in /  34682.8 hPa SSW 6.4 mph /  10.3 km/h 14.5 mph /  23.3 km/h 94 % 0.0 in /  0 mm
09:02 8.7 °F /  -12.9 °C 7.6 °F /  -13.6 °C 1024.3 in /  34682.8 hPa SSW 7.9 mph /  12.7 km/h 11.3 mph /  18.2 km/h 93 % 0.0 in /  0 mm
09:08 8.8 °F /  -12.9 °C 7.7 °F /  -13.5 °C 1023.9 in /  34669.3 hPa SSW 9.7 mph /  15.6 km/h 11.3 mph /  18.2 km/h 93 % 0.0 in /  0 mm
09:14 8.8 °F /  -12.9 °C 7.6 °F /  -13.6 °C 1023.9 in /  34669.3 hPa SSW 6.4 mph /  10.3 km/h 12.9 mph /  20.8 km/h 92 % 0.0 in /  0 mm
09:20 8.9 °F /  -12.8 °C 7.7 °F /  -13.5 °C 1023.9 in /  34669.3 hPa SW 7.9 mph /  12.7 km/h 12.9 mph /  20.8 km/h 92 % 0.0 in /  0 mm
09:26 8.9 °F /  -12.8 °C 7.7 °F /  -13.5 °C 1023.9 in /  34669.3 hPa SW 13.0 mph /  20.9 km/h 13.0 mph /  20.9 km/h 92 % 0.0 in /  0 mm
09:38 8.8 °F /  -12.9 °C 7.4 °F /  -13.7 °C 1023.9 in /  34669.3 hPa South 13.0 mph /  20.9 km/h 14.5 mph /  23.3 km/h 91 % 0.0 in /  0 mm
09:44 8.7 °F /  -12.9 °C 7.3 °F /  -13.7 °C 1023.9 in /  34669.3 hPa SW 9.7 mph /  15.6 km/h 14.5 mph /  23.3 km/h 91 % 0.0 in /  0 mm
09:50 8.8 °F /  -12.9 °C 7.4 °F /  -13.7 °C 1023.9 in /  34669.3 hPa SSW 13.0 mph /  20.9 km/h 14.5 mph /  23.3 km/h 91 % 0.0 in /  0 mm
09:56 8.8 °F /  -12.9 °C 7.4 °F /  -13.7 °C 1023.9 in /  34669.3 hPa SW 13.0 mph /  20.9 km/h 13.0 mph /  20.9 km/h 91 % 0.0 in /  0 mm
10:02 8.9 °F /  -12.8 °C 7.5 °F /  -13.6 °C 1023.9 in /  34669.3 hPa SW 4.7 mph /  7.6 km/h 8.0 mph /  12.9 km/h 91 % 0.0 in /  0 mm
10:08 8.9 °F /  -12.8 °C 7.5 °F /  -13.6 °C 1023.9 in /  34669.3 hPa South 6.4 mph /  10.3 km/h 9.7 mph /  15.6 km/h 91 % 0.0 in /  0 mm
10:14 9.0 °F /  -12.8 °C 7.6 °F /  -13.6 °C 1023.6 in /  34659.1 hPa South 6.4 mph /  10.3 km/h 11.3 mph /  18.2 km/h 91 % 0.0 in /  0 mm
10:26 9.2 °F /  -12.7 °C 7.6 °F /  -13.6 °C 1023.9 in /  34669.3 hPa SSW 9.7 mph /  15.6 km/h 12.9 mph /  20.8 km/h 90 % 0.0 in /  0 mm
10:32 9.3 °F /  -12.6 °C 7.9 °F /  -13.4 °C 1023.9 in /  34669.3 hPa South 9.7 mph /  15.6 km/h 11.3 mph /  18.2 km/h 91 % 0.0 in /  0 mm
10:38 9.4 °F /  -12.6 °C 8.0 °F /  -13.3 °C 1023.6 in /  34659.1 hPa SW 7.9 mph /  12.7 km/h 11.3 mph /  18.2 km/h 91 % 0.0 in /  0 mm
10:44 9.5 °F /  -12.5 °C 7.9 °F /  -13.4 °C 1023.6 in /  34659.1 hPa SSW 11.1 mph /  17.9 km/h 12.9 mph /  20.8 km/h 90 % 0.0 in /  0 mm
10:51 9.6 °F /  -12.4 °C 8.0 °F /  -13.3 °C 1023.9 in /  34669.3 hPa SSW 9.7 mph /  15.6 km/h 12.9 mph /  20.8 km/h 90 % 0.0 in /  0 mm
10:56 9.6 °F /  -12.4 °C 8.0 °F /  -13.3 °C 1023.6 in /  34659.1 hPa SSE 6.4 mph /  10.3 km/h 12.9 mph /  20.8 km/h 90 % 0.0 in /  0 mm
11:02 9.8 °F /  -12.3 °C 8.2 °F /  -13.2 °C 1023.6 in /  34659.1 hPa South 9.7 mph /  15.6 km/h 12.9 mph /  20.8 km/h 90 % 0.0 in /  0 mm
11:09 9.9 °F /  -12.3 °C 8.2 °F /  -13.2 °C 1023.6 in /  34659.1 hPa SW 11.1 mph /  17.9 km/h 16.1 mph /  25.9 km/h 89 % 0.0 in /  0 mm
11:15 9.9 °F /  -12.3 °C 8.2 °F /  -13.2 °C 1023.6 in /  34659.1 hPa SW 9.7 mph /  15.6 km/h 11.3 mph /  18.2 km/h 89 % 0.0 in /  0 mm
11:21 10.1 °F /  -12.2 °C 8.2 °F /  -13.2 °C 1023.6 in /  34659.1 hPa SW 9.7 mph /  15.6 km/h 11.3 mph /  18.2 km/h 88 % 0.0 in /  0 mm
11:27 10.3 °F /  -12.1 °C 8.4 °F /  -13.1 °C 1023.6 in /  34659.1 hPa SW 11.1 mph /  17.9 km/h 11.3 mph /  18.2 km/h 88 % 0.0 in /  0 mm
11:33 10.4 °F /  -12 °C 8.5 °F /  -13.1 °C 1023.2 in /  34645.6 hPa SSW 11.1 mph /  17.9 km/h 14.5 mph /  23.3 km/h 88 % 0.0 in /  0 mm
11:39 10.6 °F /  -11.9 °C 8.5 °F /  -13.1 °C 1023.2 in /  34645.6 hPa SSW 13.0 mph /  20.9 km/h 13.0 mph /  20.9 km/h 87 % 0.0 in /  0 mm
11:45 10.7 °F /  -11.8 °C 8.6 °F /  -13 °C 1023.2 in /  34645.6 hPa South 6.4 mph /  10.3 km/h 14.5 mph /  23.3 km/h 87 % 0.0 in /  0 mm
11:51 10.8 °F /  -11.8 °C 8.6 °F /  -13 °C 1023.2 in /  34645.6 hPa SSW 9.7 mph /  15.6 km/h 16.1 mph /  25.9 km/h 86 % 0.0 in /  0 mm
11:57 11.0 °F /  -11.7 °C 8.9 °F /  -12.8 °C 1022.9 in /  34635.4 hPa SSW 11.1 mph /  17.9 km/h 17.7 mph /  28.5 km/h 87 % 0.0 in /  0 mm
12:03 11.1 °F /  -11.6 °C 8.7 °F /  -12.9 °C 1022.9 in /  34635.4 hPa SSW 14.3 mph /  23 km/h 16.1 mph /  25.9 km/h 85 % 0.0 in /  0 mm
12:09 11.2 °F /  -11.6 °C 8.9 °F /  -12.8 °C 1022.9 in /  34635.4 hPa SSW 6.4 mph /  10.3 km/h 12.9 mph /  20.8 km/h 86 % 0.0 in /  0 mm
12:15 11.2 °F /  -11.6 °C 8.8 °F /  -12.9 °C 1022.9 in /  34635.4 hPa SSW 13.0 mph /  20.9 km/h 16.1 mph /  25.9 km/h 85 % 0.0 in /  0 mm
12:21 11.3 °F /  -11.5 °C 8.7 °F /  -12.9 °C 1022.6 in /  34625.2 hPa SW 11.1 mph /  17.9 km/h 16.1 mph /  25.9 km/h 84 % 0.0 in /  0 mm
12:27 11.4 °F /  -11.4 °C 9.0 °F /  -12.8 °C 1022.6 in /  34625.2 hPa SSW 13.0 mph /  20.9 km/h 14.5 mph /  23.3 km/h 85 % 0.0 in /  0 mm
12:33 11.6 °F /  -11.3 °C 9.0 °F /  -12.8 °C 1022.6 in /  34625.2 hPa SW 9.7 mph /  15.6 km/h 17.7 mph /  28.5 km/h 84 % 0.0 in /  0 mm
12:39 11.7 °F /  -11.3 °C 8.9 °F /  -12.8 °C 1022.2 in /  34611.7 hPa SW 9.7 mph /  15.6 km/h 22.5 mph /  36.2 km/h 83 % 0.0 in /  0 mm
12:45 11.8 °F /  -11.2 °C 8.6 °F /  -13 °C 1022.2 in /  34611.7 hPa SSW 13.0 mph /  20.9 km/h 17.7 mph /  28.5 km/h 81 % 0.0 in /  0 mm
12:51 11.9 °F /  -11.2 °C 9.1 °F /  -12.7 °C 1022.2 in /  34611.7 hPa SW 9.7 mph /  15.6 km/h 12.9 mph /  20.8 km/h 83 % 0.0 in /  0 mm
12:57 12.0 °F /  -11.1 °C 9.2 °F /  -12.7 °C 1022.2 in /  34611.7 hPa SW 16.3 mph /  26.2 km/h 19.3 mph /  31.1 km/h 83 % 0.0 in /  0 mm
13:03 11.9 °F /  -11.2 °C 8.7 °F /  -12.9 °C 1021.9 in /  34601.5 hPa SW 16.3 mph /  26.2 km/h 22.5 mph /  36.2 km/h 81 % 0.0 in /  0 mm
13:09 11.9 °F /  -11.2 °C 9.1 °F /  -12.7 °C 1021.9 in /  34601.5 hPa SSW 11.1 mph /  17.9 km/h 17.7 mph /  28.5 km/h 83 % 0.0 in /  0 mm
13:15 12.1 °F /  -11.1 °C 8.8 °F /  -12.9 °C 1021.9 in /  34601.5 hPa South 11.1 mph /  17.9 km/h 16.1 mph /  25.9 km/h 80 % 0.0 in /  0 mm
13:21 12.2 °F /  -11 °C 8.9 °F /  -12.8 °C 1021.6 in /  34591.4 hPa SSW 14.3 mph /  23 km/h 19.3 mph /  31.1 km/h 80 % 0.0 in /  0 mm
13:27 12.4 °F /  -10.9 °C 9.0 °F /  -12.8 °C 1021.6 in /  34591.4 hPa SW 14.3 mph /  23 km/h 16.1 mph /  25.9 km/h 80 % 0.0 in /  0 mm
13:33 12.4 °F /  -10.9 °C 8.7 °F /  -12.9 °C 1021.2 in /  34577.8 hPa SW 14.3 mph /  23 km/h 17.7 mph /  28.5 km/h 78 % 0.0 in /  0 mm
13:39 12.4 °F /  -10.9 °C 8.7 °F /  -12.9 °C 1021.2 in /  34577.8 hPa SW 13.0 mph /  20.9 km/h 17.7 mph /  28.5 km/h 78 % 0.0 in /  0 mm
13:45 12.4 °F /  -10.9 °C 9.0 °F /  -12.8 °C 1021.2 in /  34577.8 hPa SSW 13.0 mph /  20.9 km/h 22.5 mph /  36.2 km/h 80 % 0.0 in /  0 mm
13:51 12.4 °F /  -10.9 °C 9.0 °F /  -12.8 °C 1021.2 in /  34577.8 hPa SSW 16.3 mph /  26.2 km/h 17.7 mph /  28.5 km/h 80 % 0.0 in /  0 mm
13:57 12.3 °F /  -10.9 °C 8.8 °F /  -12.9 °C 1020.9 in /  34567.7 hPa SW 16.3 mph /  26.2 km/h 20.9 mph /  33.6 km/h 79 % 0.0 in /  0 mm
14:03 12.3 °F /  -10.9 °C 8.8 °F /  -12.9 °C 1020.9 in /  34567.7 hPa SSW 14.3 mph /  23 km/h 25.7 mph /  41.4 km/h 79 % 0.0 in /  0 mm
14:09 12.3 °F /  -10.9 °C 8.8 °F /  -12.9 °C 1020.9 in /  34567.7 hPa SW 11.1 mph /  17.9 km/h 19.3 mph /  31.1 km/h 79 % 0.0 in /  0 mm
14:15 12.3 °F /  -10.9 °C 8.8 °F /  -12.9 °C 1020.5 in /  34554.1 hPa SW 16.3 mph /  26.2 km/h 16.3 mph /  26.2 km/h 79 % 0.0 in /  0 mm
14:21 12.2 °F /  -11 °C 8.5 °F /  -13.1 °C 1020.5 in /  34554.1 hPa SW 16.3 mph /  26.2 km/h 20.9 mph /  33.6 km/h 78 % 0.0 in /  0 mm
14:27 12.2 °F /  -11 °C 8.7 °F /  -12.9 °C 1020.5 in /  34554.1 hPa WSW 14.3 mph /  23 km/h 19.3 mph /  31.1 km/h 79 % 0.0 in /  0 mm
14:33 12.4 °F /  -10.9 °C 9.0 °F /  -12.8 °C 1020.2 in /  34544 hPa SSW 9.7 mph /  15.6 km/h 20.9 mph /  33.6 km/h 80 % 0.0 in /  0 mm
14:39 12.5 °F /  -10.8 °C 9.1 °F /  -12.7 °C 1020.2 in /  34544 hPa SSW 17.7 mph /  28.5 km/h 25.7 mph /  41.4 km/h 80 % 0.0 in /  0 mm
14:51 12.4 °F /  -10.9 °C 8.7 °F /  -12.9 °C 1019.9 in /  34533.8 hPa SW 20.9 mph /  33.6 km/h 25.7 mph /  41.4 km/h 78 % 0.0 in /  0 mm
14:57 12.4 °F /  -10.9 °C 8.7 °F /  -12.9 °C 1019.9 in /  34533.8 hPa SSW 17.7 mph /  28.5 km/h 27.4 mph /  44.1 km/h 78 % 0.0 in /  0 mm
15:03 12.3 °F /  -10.9 °C 8.9 °F /  -12.8 °C 1019.9 in /  34533.8 hPa SW 20.9 mph /  33.6 km/h 27.4 mph /  44.1 km/h 80 % 0.0 in /  0 mm
15:09 12.3 °F /  -10.9 °C 8.6 °F /  -13 °C 1019.5 in /  34520.3 hPa WSW 22.7 mph /  36.5 km/h 22.7 mph /  36.5 km/h 78 % 0.0 in /  0 mm
15:15 12.3 °F /  -10.9 °C 8.8 °F /  -12.9 °C 1019.5 in /  34520.3 hPa SW 17.7 mph /  28.5 km/h 22.5 mph /  36.2 km/h 79 % 0.0 in /  0 mm
15:27 12.3 °F /  -10.9 °C 9.1 °F /  -12.7 °C 1019.5 in /  34520.3 hPa SW 14.3 mph /  23 km/h 22.5 mph /  36.2 km/h 81 % 0.0 in /  0 mm
15:33 12.2 °F /  -11 °C 8.7 °F /  -12.9 °C 1019.5 in /  34520.3 hPa SSW 20.9 mph /  33.6 km/h 25.7 mph /  41.4 km/h 79 % 0.0 in /  0 mm
15:39 12.3 °F /  -10.9 °C 8.8 °F /  -12.9 °C 1019.5 in /  34520.3 hPa SW 22.7 mph /  36.5 km/h 24.1 mph /  38.8 km/h 79 % 0.0 in /  0 mm
15:45 12.2 °F /  -11 °C 8.9 °F /  -12.8 °C 1019.5 in /  34520.3 hPa SW 16.3 mph /  26.2 km/h 25.7 mph /  41.4 km/h 80 % 0.0 in /  0 mm
15:51 12.2 °F /  -11 °C 8.9 °F /  -12.8 °C 1019.5 in /  34520.3 hPa WSW 14.3 mph /  23 km/h 27.4 mph /  44.1 km/h 80 % 0.0 in /  0 mm
15:57 12.2 °F /  -11 °C 8.7 °F /  -12.9 °C 1019.5 in /  34520.3 hPa SW 13.0 mph /  20.9 km/h 19.3 mph /  31.1 km/h 79 % 0.0 in /  0 mm
16:21 12.0 °F /  -11.1 °C 8.7 °F /  -12.9 °C 1019.5 in /  34520.3 hPa SSW 11.1 mph /  17.9 km/h 25.7 mph /  41.4 km/h 80 % 0.0 in /  0 mm
16:27 11.9 °F /  -11.2 °C 8.9 °F /  -12.8 °C 1019.5 in /  34520.3 hPa SSW 9.7 mph /  15.6 km/h 19.3 mph /  31.1 km/h 82 % 0.0 in /  0 mm
16:33 11.8 °F /  -11.2 °C 9.2 °F /  -12.7 °C 1019.5 in /  34520.3 hPa SSW 11.1 mph /  17.9 km/h 12.9 mph /  20.8 km/h 84 % 0.0 in /  0 mm
16:45 11.6 °F /  -11.3 °C 8.8 °F /  -12.9 °C 1019.5 in /  34520.3 hPa SSW 11.1 mph /  17.9 km/h 16.1 mph /  25.9 km/h 83 % 0.0 in /  0 mm
16:51 11.6 °F /  -11.3 °C 8.6 °F /  -13 °C 1019.5 in /  34520.3 hPa SW 16.3 mph /  26.2 km/h 17.7 mph /  28.5 km/h 82 % 0.0 in /  0 mm
16:57 11.6 °F /  -11.3 °C 8.8 °F /  -12.9 °C 1019.2 in /  34510.1 hPa SSW 9.7 mph /  15.6 km/h 16.1 mph /  25.9 km/h 83 % 0.0 in /  0 mm
17:03 11.4 °F /  -11.4 °C 8.8 °F /  -12.9 °C 1019.2 in /  34510.1 hPa SSW 6.4 mph /  10.3 km/h 11.3 mph /  18.2 km/h 84 % 0.0 in /  0 mm
17:09 11.3 °F /  -11.5 °C 8.7 °F /  -12.9 °C 1019.2 in /  34510.1 hPa SW 4.7 mph /  7.6 km/h 11.3 mph /  18.2 km/h 84 % 0.0 in /  0 mm
17:15 11.2 °F /  -11.6 °C 8.8 °F /  -12.9 °C 1019.2 in /  34510.1 hPa SSW 6.4 mph /  10.3 km/h 9.7 mph /  15.6 km/h 85 % 0.0 in /  0 mm
17:21 11.0 °F /  -11.7 °C 8.7 °F /  -12.9 °C 1019.2 in /  34510.1 hPa SW 6.4 mph /  10.3 km/h 8.0 mph /  12.9 km/h 86 % 0.0 in /  0 mm
17:27 10.8 °F /  -11.8 °C 8.6 °F /  -13 °C 1019.2 in /  34510.1 hPa SSW 7.9 mph /  12.7 km/h 8.0 mph /  12.9 km/h 86 % 0.0 in /  0 mm
17:33 10.7 °F /  -11.8 °C 8.5 °F /  -13.1 °C 1019.2 in /  34510.1 hPa SW 7.9 mph /  12.7 km/h 11.3 mph /  18.2 km/h 86 % 0.0 in /  0 mm
17:39 10.4 °F /  -12 °C 8.3 °F /  -13.2 °C 1019.2 in /  34510.1 hPa SW 7.9 mph /  12.7 km/h 9.7 mph /  15.6 km/h 87 % 0.0 in /  0 mm
17:45 10.2 °F /  -12.1 °C 8.1 °F /  -13.3 °C 1018.8 in /  34496.6 hPa SW 6.4 mph /  10.3 km/h 9.7 mph /  15.6 km/h 87 % 0.0 in /  0 mm
17:51 10.0 °F /  -12.2 °C 8.1 °F /  -13.3 °C 1019.2 in /  34510.1 hPa SSW 7.9 mph /  12.7 km/h 9.7 mph /  15.6 km/h 88 % 0.0 in /  0 mm
17:57 9.9 °F /  -12.3 °C 7.8 °F /  -13.4 °C 1018.8 in /  34496.6 hPa SW 6.4 mph /  10.3 km/h 9.7 mph /  15.6 km/h 87 % 0.0 in /  0 mm
18:09 9.7 °F /  -12.4 °C 7.8 °F /  -13.4 °C 1018.8 in /  34496.6 hPa SW 7.9 mph /  12.7 km/h 8.0 mph /  12.9 km/h 88 % 0.0 in /  0 mm
18:15 9.5 °F /  -12.5 °C 7.6 °F /  -13.6 °C 1018.8 in /  34496.6 hPa SSW 6.4 mph /  10.3 km/h 8.0 mph /  12.9 km/h 88 % 0.0 in /  0 mm
18:21 9.4 °F /  -12.6 °C 7.7 °F /  -13.5 °C 1018.8 in /  34496.6 hPa SW 4.7 mph /  7.6 km/h 8.0 mph /  12.9 km/h 89 % 0.0 in /  0 mm
18:33 9.4 °F /  -12.6 °C 7.5 °F /  -13.6 °C 1018.8 in /  34496.6 hPa SW 3.2 mph /  5.1 km/h 6.4 mph /  10.3 km/h 88 % 0.0 in /  0 mm
18:39 9.3 °F /  -12.6 °C 7.4 °F /  -13.7 °C 1018.8 in /  34496.6 hPa SW 4.7 mph /  7.6 km/h 6.4 mph /  10.3 km/h 88 % 0.0 in /  0 mm
18:45 9.3 °F /  -12.6 °C 7.4 °F /  -13.7 °C 1018.8 in /  34496.6 hPa SW 4.7 mph /  7.6 km/h 8.0 mph /  12.9 km/h 88 % 0.0 in /  0 mm
18:51 9.3 °F /  -12.6 °C 7.4 °F /  -13.7 °C 1018.8 in /  34496.6 hPa SW 6.4 mph /  10.3 km/h 8.0 mph /  12.9 km/h 88 % 0.0 in /  0 mm
18:57 9.2 °F /  -12.7 °C 7.5 °F /  -13.6 °C 1018.8 in /  34496.6 hPa SW 7.9 mph /  12.7 km/h 8.0 mph /  12.9 km/h 89 % 0.0 in /  0 mm
19:03 9.2 °F /  -12.7 °C 7.5 °F /  -13.6 °C 1018.8 in /  34496.6 hPa SSW 6.4 mph /  10.3 km/h 8.0 mph /  12.9 km/h 89 % 0.0 in /  0 mm
19:09 9.1 °F /  -12.7 °C 7.4 °F /  -13.7 °C 1018.8 in /  34496.6 hPa SSW 6.4 mph /  10.3 km/h 8.0 mph /  12.9 km/h 89 % 0.0 in /  0 mm
19:15 9.0 °F /  -12.8 °C 7.3 °F /  -13.7 °C 1019.2 in /  34510.1 hPa SW 6.4 mph /  10.3 km/h 9.7 mph /  15.6 km/h 89 % 0.0 in /  0 mm
19:27 9.1 °F /  -12.7 °C 7.4 °F /  -13.7 °C 1019.2 in /  34510.1 hPa WSW 4.7 mph /  7.6 km/h 6.4 mph /  10.3 km/h 89 % 0.0 in /  0 mm
19:33 9.3 °F /  -12.6 °C 7.6 °F /  -13.6 °C 1019.2 in /  34510.1 hPa SW 4.7 mph /  7.6 km/h 8.0 mph /  12.9 km/h 89 % 0.0 in /  0 mm
19:39 9.3 °F /  -12.6 °C 7.4 °F /  -13.7 °C 1019.2 in /  34510.1 hPa SW 6.4 mph /  10.3 km/h 8.0 mph /  12.9 km/h 88 % 0.0 in /  0 mm
19:45 9.4 °F /  -12.6 °C 7.5 °F /  -13.6 °C 1019.2 in /  34510.1 hPa SW 4.7 mph /  7.6 km/h 8.0 mph /  12.9 km/h 88 % 0.0 in /  0 mm
19:51 9.6 °F /  -12.4 °C 7.7 °F /  -13.5 °C 1019.2 in /  34510.1 hPa SW 9.7 mph /  15.6 km/h 12.9 mph /  20.8 km/h 88 % 0.0 in /  0 mm
19:57 9.6 °F /  -12.4 °C 7.7 °F /  -13.5 °C 1019.2 in /  34510.1 hPa SW 7.9 mph /  12.7 km/h 11.3 mph /  18.2 km/h 88 % 0.0 in /  0 mm
20:09 9.3 °F /  -12.6 °C 7.6 °F /  -13.6 °C 1019.2 in /  34510.1 hPa SW 6.4 mph /  10.3 km/h 11.3 mph /  18.2 km/h 89 % 0.0 in /  0 mm
20:15 9.2 °F /  -12.7 °C 7.6 °F /  -13.6 °C 1019.2 in /  34510.1 hPa SSW 6.4 mph /  10.3 km/h 9.7 mph /  15.6 km/h 90 % 0.0 in /  0 mm
20:21 9.3 °F /  -12.6 °C 7.7 °F /  -13.5 °C 1019.2 in /  34510.1 hPa SW 6.4 mph /  10.3 km/h 8.0 mph /  12.9 km/h 90 % 0.0 in /  0 mm
20:27 9.5 °F /  -12.5 °C 7.8 °F /  -13.4 °C 1019.2 in /  34510.1 hPa SW 7.9 mph /  12.7 km/h 12.9 mph /  20.8 km/h 89 % 0.0 in /  0 mm
20:33 9.9 °F /  -12.3 °C 8.0 °F /  -13.3 °C 1019.2 in /  34510.1 hPa SW 6.4 mph /  10.3 km/h 11.3 mph /  18.2 km/h 88 % 0.0 in /  0 mm
20:39 10.3 °F /  -12.1 °C 8.1 °F /  -13.3 °C 1019.2 in /  34510.1 hPa SW 11.1 mph /  17.9 km/h 14.5 mph /  23.3 km/h 86 % 0.0 in /  0 mm
20:45 10.7 °F /  -11.8 °C 8.1 °F /  -13.3 °C 1019.2 in /  34510.1 hPa SW 11.1 mph /  17.9 km/h 20.9 mph /  33.6 km/h 84 % 0.0 in /  0 mm
20:51 10.8 °F /  -11.8 °C 8.0 °F /  -13.3 °C 1019.2 in /  34510.1 hPa WSW 9.7 mph /  15.6 km/h 14.5 mph /  23.3 km/h 83 % 0.0 in /  0 mm
21:03 10.8 °F /  -11.8 °C 8.0 °F /  -13.3 °C 1019.2 in /  34510.1 hPa SSW 3.2 mph /  5.1 km/h 12.9 mph /  20.8 km/h 83 % 0.0 in /  0 mm
21:09 10.8 °F /  -11.8 °C 8.2 °F /  -13.2 °C 1019.2 in /  34510.1 hPa SW 13.0 mph /  20.9 km/h 17.7 mph /  28.5 km/h 84 % 0.0 in /  0 mm
21:15 10.8 °F /  -11.8 °C 8.2 °F /  -13.2 °C 1019.2 in /  34510.1 hPa SW 16.3 mph /  26.2 km/h 17.7 mph /  28.5 km/h 84 % 0.0 in /  0 mm
21:21 10.7 °F /  -11.8 °C 8.1 °F /  -13.3 °C 1019.2 in /  34510.1 hPa SW 7.9 mph /  12.7 km/h 16.1 mph /  25.9 km/h 84 % 0.0 in /  0 mm
21:27 10.7 °F /  -11.8 °C 8.1 °F /  -13.3 °C 1019.2 in /  34510.1 hPa SW 11.1 mph /  17.9 km/h 12.9 mph /  20.8 km/h 84 % 0.0 in /  0 mm
21:33 10.6 °F /  -11.9 °C 8.0 °F /  -13.3 °C 1019.2 in /  34510.1 hPa SW 14.3 mph /  23 km/h 14.5 mph /  23.3 km/h 84 % 0.0 in /  0 mm
21:39 10.2 °F /  -12.1 °C 7.8 °F /  -13.4 °C 1018.8 in /  34496.6 hPa South 7.9 mph /  12.7 km/h 11.3 mph /  18.2 km/h 85 % 0.0 in /  0 mm
21:45 9.8 °F /  -12.3 °C 7.7 °F /  -13.5 °C 1019.2 in /  34510.1 hPa SW 7.9 mph /  12.7 km/h 11.3 mph /  18.2 km/h 87 % 0.0 in /  0 mm
21:51 9.8 °F /  -12.3 °C 7.9 °F /  -13.4 °C 1019.2 in /  34510.1 hPa WSW 4.7 mph /  7.6 km/h 12.9 mph /  20.8 km/h 88 % 0.0 in /  0 mm
21:57 9.8 °F /  -12.3 °C 7.9 °F /  -13.4 °C 1019.2 in /  34510.1 hPa SSW 11.1 mph /  17.9 km/h 14.5 mph /  23.3 km/h 88 % 0.0 in /  0 mm
22:03 9.9 °F /  -12.3 °C 8.0 °F /  -13.3 °C 1019.2 in /  34510.1 hPa SW 7.9 mph /  12.7 km/h 12.9 mph /  20.8 km/h 88 % 0.0 in /  0 mm
22:09 10.3 °F /  -12.1 °C 8.1 °F /  -13.3 °C 1019.2 in /  34510.1 hPa SW 14.3 mph /  23 km/h 17.7 mph /  28.5 km/h 86 % 0.0 in /  0 mm
22:15 10.6 °F /  -11.9 °C 8.2 °F /  -13.2 °C 1019.2 in /  34510.1 hPa West 13.0 mph /  20.9 km/h 22.5 mph /  36.2 km/h 85 % 0.0 in /  0 mm
22:21 10.6 °F /  -11.9 °C 8.2 °F /  -13.2 °C 1019.2 in /  34510.1 hPa WSW 14.3 mph /  23 km/h 17.7 mph /  28.5 km/h 85 % 0.0 in /  0 mm
22:27 10.6 °F /  -11.9 °C 8.2 °F /  -13.2 °C 1019.2 in /  34510.1 hPa SW 14.3 mph /  23 km/h 24.1 mph /  38.8 km/h 85 % 0.0 in /  0 mm
22:34 10.6 °F /  -11.9 °C 8.2 °F /  -13.2 °C 1019.2 in /  34510.1 hPa WSW 9.7 mph /  15.6 km/h 17.7 mph /  28.5 km/h 85 % 0.0 in /  0 mm
22:40 10.3 °F /  -12.1 °C 8.1 °F /  -13.3 °C 1019.2 in /  34510.1 hPa SW 7.9 mph /  12.7 km/h 11.3 mph /  18.2 km/h 86 % 0.0 in /  0 mm
22:46 10.0 °F /  -12.2 °C 7.9 °F /  -13.4 °C 1019.2 in /  34510.1 hPa South 4.7 mph /  7.6 km/h 6.4 mph /  10.3 km/h 87 % 0.0 in /  0 mm
22:52 9.8 °F /  -12.3 °C 7.9 °F /  -13.4 °C 1019.2 in /  34510.1 hPa SSW 6.4 mph /  10.3 km/h 11.3 mph /  18.2 km/h 88 % 0.0 in /  0 mm
22:58 9.8 °F /  -12.3 °C 7.9 °F /  -13.4 °C 1018.8 in /  34496.6 hPa SSW 4.7 mph /  7.6 km/h 12.9 mph /  20.8 km/h 88 % 0.0 in /  0 mm
23:04 9.8 °F /  -12.3 °C 7.9 °F /  -13.4 °C 1018.8 in /  34496.6 hPa SW 7.9 mph /  12.7 km/h 14.5 mph /  23.3 km/h 88 % 0.0 in /  0 mm
23:10 9.9 °F /  -12.3 °C 7.8 °F /  -13.4 °C 1019.2 in /  34510.1 hPa SSW 9.7 mph /  15.6 km/h 17.7 mph /  28.5 km/h 87 % 0.0 in /  0 mm
23:18 10.2 °F /  -12.1 °C 8.0 °F /  -13.3 °C 1018.8 in /  34496.6 hPa SSW 13.0 mph /  20.9 km/h 17.7 mph /  28.5 km/h 86 % 0.0 in /  0 mm
23:24 10.1 °F /  -12.2 °C 8.0 °F /  -13.3 °C 1018.8 in /  34496.6 hPa SW 9.7 mph /  15.6 km/h 16.1 mph /  25.9 km/h 87 % 0.0 in /  0 mm
23:30 10.0 °F /  -12.2 °C 7.9 °F /  -13.4 °C 1019.2 in /  34510.1 hPa SW 9.7 mph /  15.6 km/h 11.3 mph /  18.2 km/h 87 % 0.0 in /  0 mm
23:36 9.9 °F /  -12.3 °C 8.0 °F /  -13.3 °C 1018.8 in /  34496.6 hPa South 7.9 mph /  12.7 km/h 9.7 mph /  15.6 km/h 88 % 0.0 in /  0 mm
23:44 9.9 °F /  -12.3 °C 8.0 °F /  -13.3 °C 1018.8 in /  34496.6 hPa South 3.2 mph /  5.1 km/h 9.7 mph /  15.6 km/h 88 % 0.0 in /  0 mm
23:50 9.8 °F /  -12.3 °C 7.9 °F /  -13.4 °C 1018.8 in /  34496.6 hPa SSW 7.9 mph /  12.7 km/h 11.3 mph /  18.2 km/h 88 % 0.0 in /  0 mm
23:56 9.9 °F /  -12.3 °C 8.0 °F /  -13.3 °C 1018.5 in /  34486.4 hPa SE 6.4 mph /  10.3 km/h 11.3 mph /  18.2 km/h 88 % 0.0 in /  0 mm
Meteo18
Compliments of Weather Underground - 4 mb

Script developed by  Jim McMurry - jmcmurry@mwt.net Adapted for the template by  Wim van der Kuil - Leuven-Template.eu

You find our weather info also at:

European Weather Network

Weather Underground

Equipment we use:

Weather-station
Davis Vue

Weather-program
Meteobridge

Weather-server
Raspberry PI 2 B+

Provider
1 and 1

Davis Vue

Meteobridge

Raspberry PI 2 B+

1 and 1